Etusivu
METAR-TAF:

METAR-TAF

Lentoasemat :

Szolnok, Unkari

Leveyspiiri: 47-07N, Pituuspiiri: 020-14E, korkeus merenpinnasta: 89 m

Tämänhetkinen sää

Tämä raportti tehtiin 29 minuuttia sitten, kello 06.45 UTC
Tuuli 2 kn etelästä
Lämpötila 4°C
Kosteus 38%
Ilmanpaine 1018 hPa
Näkyvyys 10 km tai enemmän
ei pilviä alle 1500 m:ssä eikä cumulonimbus-pilviä

METAR: LHSN 020645Z 18002KT CAVOK 04/M09 Q1018 NOSIG RMK BLU

Aika: 09:14 (07:14 UTC)

Sääennuste

Tämä raportti tehtiin 1 tunti ja 59 minuuttia sitten, kello 05.15 UTC
Ennuste voimassa 02. päivästä klo 06 UTC - 02. päivään klo 15 UTC
Tuuli 3 kn eri suunnista
Näkyvyys 10 km tai enemmän
ei pilviä alle 1500 m:ssä eikä cumulonimbus-pilviä
Tulossa
02. päivästä klo 08 UTC - 02. päivään klo 11 UTC
Tuuli 7 kn etelästä/lounaasta

TAF: LHSN 020515Z 0206/0215 VRB03KT CAVOK BECMG 0208/0211 21007KT

Säähavainnot ja -ennusteet yli 4000 lentoasemalta (METAR- ja TAF-raportit).

Käytössä olevat sääasemat on merkitty karttaan keltaisilla ja punaisilla pisteillä.

Aseta hiiri pisteen päälle nähdäksesi sääaseman nimen.

Klikkaa sitten nähdäksesi säähavainnot ja -ennusteet.

Kartan vaihtaminen: klikkaa mustalla rastilla varustettuja vihreitä pisteitä, niin voit zoomata sisään; viivalla varustettua vihreää pistettä, niin voit zoomata ulos tai vihreitä nuolia, niin pääset viereisille kartoille.


METAR-TAF: